createdAt,value
2018-12-03T00:01:32.422Z,158.50
2018-12-03T00:04:09.366Z,173.13
2018-12-03T00:06:38.080Z,162.90
2018-12-03T00:09:09.112Z,160.33
2018-12-03T00:11:38.108Z,157.93
2018-12-03T00:14:06.924Z,154.97
2018-12-03T00:16:35.643Z,157.63
2018-12-03T00:19:04.478Z,148.37
2018-12-03T00:21:33.203Z,148.37
2018-12-03T00:24:01.966Z,151.00
2018-12-03T00:26:30.706Z,154.33
2018-12-03T00:28:59.517Z,149.67
2018-12-03T00:31:28.276Z,154.73
2018-12-03T00:33:57.272Z,154.97
2018-12-03T00:36:26.039Z,151.77
2018-12-03T00:38:54.789Z,156.50
2018-12-03T00:41:23.527Z,155.43
2018-12-03T00:43:52.237Z,155.10
2018-12-03T00:46:20.954Z,153.00
2018-12-03T00:48:49.624Z,156.37
2018-12-03T00:51:18.306Z,162.27
2018-12-03T00:53:46.988Z,162.83
2018-12-03T00:56:15.672Z,161.80
2018-12-03T00:58:44.365Z,160.10
2018-12-03T01:01:13.067Z,163.13
2018-12-03T01:03:41.815Z,162.63
2018-12-03T01:06:10.596Z,162.73
2018-12-03T01:08:39.239Z,169.90
2018-12-03T01:11:08.018Z,165.10
2018-12-03T01:13:36.725Z,167.10
2018-12-03T01:16:05.997Z,172.43
2018-12-03T01:18:34.688Z,168.17
2018-12-03T01:21:03.424Z,180.60
2018-12-03T01:23:32.077Z,184.47
2018-12-03T01:26:00.690Z,188.03
2018-12-03T01:28:29.425Z,202.50
2018-12-03T01:30:58.086Z,185.37
2018-12-03T01:33:26.767Z,186.60
2018-12-03T01:35:55.585Z,195.13
2018-12-03T01:38:24.256Z,184.60
2018-12-03T01:40:53.029Z,174.83
2018-12-03T01:43:21.684Z,178.10
2018-12-03T01:45:50.506Z,194.43
2018-12-03T01:48:19.200Z,190.10
2018-12-03T01:50:47.892Z,188.07
2018-12-03T01:53:16.552Z,200.60
2018-12-03T01:55:45.508Z,197.80
2018-12-03T01:58:14.239Z,218.67
2018-12-03T02:00:42.925Z,216.13
2018-12-03T02:03:11.664Z,213.70
2018-12-03T02:05:40.334Z,226.43
2018-12-03T02:08:09.093Z,221.77
2018-12-03T02:10:37.777Z,222.53
2018-12-03T02:13:06.693Z,227.33
2018-12-03T02:15:35.434Z,224.90
2018-12-03T02:18:04.146Z,230.23
2018-12-03T02:20:32.784Z,225.53
2018-12-03T02:23:01.402Z,226.13
2018-12-03T02:25:30.090Z,239.87
2018-12-03T02:27:58.732Z,233.47
2018-12-03T02:30:27.436Z,233.07
2018-12-03T02:32:56.084Z,236.50
2018-12-03T02:35:24.820Z,250.30
2018-12-03T02:37:53.458Z,239.63
2018-12-03T02:40:22.132Z,243.00
2018-12-03T02:42:50.765Z,239.33
2018-12-03T02:45:19.437Z,235.60
2018-12-03T02:47:48.116Z,229.97
2018-12-03T02:50:16.784Z,232.83
2018-12-03T02:52:45.459Z,234.23
2018-12-03T02:55:14.688Z,230.17
2018-12-03T02:57:43.377Z,224.67
2018-12-03T03:00:17.123Z,224.20
2018-12-03T03:02:46.081Z,220.57
2018-12-03T03:05:15.766Z,225.80
2018-12-03T03:07:44.756Z,223.43
2018-12-03T03:10:15.414Z,213.87
2018-12-03T03:12:44.102Z,217.80
2018-12-03T03:15:13.810Z,215.20
2018-12-03T03:17:42.488Z,209.60
2018-12-03T03:20:12.414Z,214.90
2018-12-03T03:22:41.140Z,213.27
2018-12-03T03:25:10.703Z,215.97
2018-12-03T03:27:39.542Z,210.90
2018-12-03T03:30:11.217Z,224.23
2018-12-03T03:32:39.947Z,228.20
2018-12-03T03:35:10.473Z,228.67
2018-12-03T03:37:39.187Z,229.50
2018-12-03T03:40:10.398Z,230.17
2018-12-03T03:42:39.101Z,222.43
2018-12-03T03:45:14.064Z,232.23
2018-12-03T03:47:42.751Z,211.67
2018-12-03T03:50:11.494Z,219.37
2018-12-03T03:52:40.169Z,213.63
2018-12-03T03:55:09.807Z,199.77
2018-12-03T03:57:38.565Z,198.37
2018-12-03T04:00:11.835Z,201.63
2018-12-03T04:02:40.648Z,198.00
2018-12-03T04:05:16.106Z,185.03
2018-12-03T04:07:45.833Z,178.10
2018-12-03T04:10:15.316Z,171.73
2018-12-03T04:12:45.093Z,170.80
2018-12-03T04:15:14.710Z,174.93
2018-12-03T04:17:43.424Z,160.73
2018-12-03T04:20:14.317Z,166.90
2018-12-03T04:22:43.212Z,169.27
2018-12-03T04:25:12.370Z,153.47
2018-12-03T04:27:41.031Z,141.20
2018-12-03T04:30:15.423Z,147.47
2018-12-03T04:32:44.110Z,140.90
2018-12-03T04:35:13.342Z,134.53
2018-12-03T04:37:42.494Z,124.13
2018-12-03T04:40:12.228Z,130.57
2018-12-03T04:42:40.911Z,134.57
2018-12-03T04:45:11.868Z,133.23
2018-12-03T04:47:40.512Z,135.13
2018-12-03T04:50:12.585Z,134.87
2018-12-03T04:52:41.380Z,133.07
2018-12-03T04:55:10.558Z,134.63
2018-12-03T04:57:39.382Z,127.13
2018-12-03T05:00:12.831Z,129.33
2018-12-03T05:02:41.629Z,130.87
2018-12-03T05:05:10.894Z,130.03
2018-12-03T05:07:39.552Z,132.97
2018-12-03T05:10:11.708Z,129.47
2018-12-03T05:12:40.376Z,135.07
2018-12-03T05:15:11.368Z,132.80
2018-12-03T05:17:40.313Z,129.47
2018-12-03T05:20:12.269Z,133.60
2018-12-03T05:22:40.930Z,132.13
2018-12-03T05:25:10.695Z,133.93
2018-12-03T05:27:39.423Z,134.87
2018-12-03T05:30:11.014Z,128.10
2018-12-03T05:32:40.155Z,130.60
2018-12-03T05:35:13.306Z,129.03
2018-12-03T05:37:42.073Z,128.27
2018-12-03T05:40:16.657Z,128.87
2018-12-03T05:42:45.560Z,123.30
2018-12-03T05:45:14.260Z,125.97
2018-12-03T05:47:42.955Z,126.37
2018-12-03T05:50:14.602Z,124.07
2018-12-03T05:52:43.996Z,125.70
2018-12-03T05:55:13.346Z,121.63
2018-12-03T05:57:42.425Z,128.07
2018-12-03T06:00:16.322Z,122.17
2018-12-03T06:02:44.987Z,131.27
2018-12-03T06:05:14.324Z,123.97
2018-12-03T06:07:43.050Z,117.47
2018-12-03T06:10:13.914Z,125.37
2018-12-03T06:12:42.630Z,127.87
2018-12-03T06:15:12.569Z,126.50
2018-12-03T06:17:41.303Z,118.37
2018-12-03T06:20:14.144Z,126.30
2018-12-03T06:22:42.874Z,128.10
2018-12-03T06:25:14.899Z,130.63
2018-12-03T06:27:43.572Z,137.37
2018-12-03T06:30:14.623Z,115.47
2018-12-03T06:32:43.309Z,121.87
2018-12-03T06:35:12.943Z,121.90
2018-12-03T06:37:41.624Z,118.30
2018-12-03T06:40:14.294Z,118.40
2018-12-03T06:42:43.004Z,114.93
2018-12-03T06:45:14.890Z,123.40
2018-12-03T06:47:49.823Z,120.30
2018-12-03T06:50:18.607Z,129.87
2018-12-03T06:52:47.271Z,125.93
2018-12-03T06:55:15.937Z,116.53
2018-12-03T06:57:44.642Z,116.80
2018-12-03T07:00:14.842Z,120.60
2018-12-03T07:02:43.908Z,118.30
2018-12-03T07:05:12.726Z,107.93
2018-12-03T07:07:42.321Z,105.50
2018-12-03T07:10:19.121Z,104.03
2018-12-03T07:12:49.262Z,118.20
2018-12-03T07:15:19.353Z,125.07
2018-12-03T07:17:48.351Z,122.70
2018-12-03T07:20:17.095Z,119.20
2018-12-03T07:22:45.737Z,125.13
2018-12-03T07:25:14.465Z,126.47
2018-12-03T07:27:43.422Z,123.27
2018-12-03T07:30:22.026Z,123.77
2018-12-03T07:32:51.308Z,118.77
2018-12-03T07:35:21.747Z,102.47
2018-12-03T07:37:51.755Z,108.00
2018-12-03T07:40:20.485Z,110.00
2018-12-03T07:42:49.183Z,110.93
2018-12-03T07:45:20.016Z,109.40
2018-12-03T07:47:48.810Z,106.03
2018-12-03T07:50:18.514Z,106.47
2018-12-03T07:52:47.244Z,108.00
2018-12-03T07:55:17.320Z,106.63
2018-12-03T07:57:50.694Z,111.13
2018-12-03T08:00:21.156Z,109.27
2018-12-03T08:02:49.866Z,113.03
2018-12-03T08:05:18.559Z,115.83
2018-12-03T08:07:47.280Z,115.57
2018-12-03T08:10:17.629Z,114.93
2018-12-03T08:12:47.341Z,112.00
2018-12-03T08:15:17.449Z,117.23
2018-12-03T08:17:52.035Z,115.43
2018-12-03T08:20:33.990Z,112.73
2018-12-03T08:23:05.651Z,120.73
2018-12-03T08:25:34.457Z,113.93
2018-12-03T08:28:03.209Z,114.23
2018-12-03T08:30:31.866Z,111.47
2018-12-03T08:33:00.603Z,109.13
2018-12-03T08:35:29.316Z,108.63
2018-12-03T08:38:03.237Z,113.47
2018-12-03T08:40:26.731Z,112.57
2018-12-03T08:42:55.870Z,108.17
2018-12-03T08:45:25.624Z,114.10
2018-12-03T08:47:54.404Z,110.40
2018-12-03T08:50:26.474Z,112.43
2018-12-03T08:52:56.089Z,112.93
2018-12-03T08:55:34.403Z,111.37
2018-12-03T08:58:03.131Z,110.93
2018-12-03T09:00:31.788Z,111.23
2018-12-03T09:03:03.893Z,112.40
2018-12-03T09:05:38.812Z,111.27
2018-12-03T09:08:09.742Z,109.93
2018-12-03T09:10:38.697Z,107.50
2018-12-03T09:13:14.945Z,108.57
2018-12-03T09:15:43.988Z,105.43
2018-12-03T09:18:12.650Z,109.13
2018-12-03T09:20:41.363Z,107.70
2018-12-03T09:23:10.028Z,107.17
2018-12-03T09:25:38.683Z,106.40
2018-12-03T09:28:07.381Z,106.40
2018-12-03T09:30:36.096Z,103.33
2018-12-03T09:33:04.858Z,103.67
2018-12-03T09:35:33.542Z,101.90
2018-12-03T09:38:02.221Z,96.40
2018-12-03T09:40:31.406Z,102.80
2018-12-03T09:43:00.110Z,96.93
2018-12-03T09:45:29.117Z,95.80
2018-12-03T09:47:57.811Z,101.70
2018-12-03T09:50:28.021Z,109.27
2018-12-03T09:52:57.036Z,109.97
2018-12-03T09:55:28.753Z,109.33
2018-12-03T09:58:10.972Z,109.13
2018-12-03T10:00:39.673Z,111.80
2018-12-03T10:03:10.428Z,119.67
2018-12-03T10:05:47.655Z,123.93
2018-12-03T10:08:16.278Z,122.83
2018-12-03T10:10:53.889Z,132.57
2018-12-03T10:13:22.932Z,131.67
2018-12-03T10:15:51.587Z,134.70
2018-12-03T10:18:20.285Z,135.20
2018-12-03T10:20:51.515Z,138.07
2018-12-03T10:23:20.197Z,136.40
2018-12-03T10:25:50.695Z,139.60
2018-12-03T10:28:20.460Z,137.57
2018-12-03T10:30:49.775Z,137.97
2018-12-03T10:33:20.313Z,135.23
2018-12-03T10:35:49.500Z,140.07
2018-12-03T10:38:21.434Z,138.27
2018-12-03T10:41:01.925Z,137.37
2018-12-03T10:43:30.616Z,137.77
2018-12-03T10:45:59.623Z,140.23
2018-12-03T10:48:28.318Z,137.83
2018-12-03T10:50:57.047Z,138.33
2018-12-03T10:53:28.497Z,145.07
2018-12-03T10:55:57.246Z,139.93
2018-12-03T10:58:25.890Z,143.23
2018-12-03T11:01:05.418Z,142.13
2018-12-03T11:03:39.278Z,135.23
2018-12-03T11:06:13.146Z,142.63
2018-12-03T11:08:41.896Z,144.47
2018-12-03T11:11:10.608Z,140.60
2018-12-03T11:13:39.375Z,141.60
2018-12-03T11:16:12.051Z,144.93
2018-12-03T11:18:43.089Z,141.33
2018-12-03T11:21:11.746Z,144.97
2018-12-03T11:23:40.548Z,146.27
2018-12-03T11:26:09.239Z,145.77
2018-12-03T11:28:41.114Z,148.83
2018-12-03T11:31:15.012Z,148.47
2018-12-03T11:33:43.675Z,145.60
2018-12-03T11:36:12.397Z,150.03
2018-12-03T11:38:56.852Z,147.53
2018-12-03T11:41:25.587Z,146.77
2018-12-03T11:43:54.266Z,148.43
2018-12-03T11:46:23.011Z,151.00
2018-12-03T11:48:51.689Z,150.57
2018-12-03T11:51:22.371Z,147.13
2018-12-03T11:53:51.129Z,151.57
2018-12-03T11:56:19.805Z,153.20
2018-12-03T11:58:48.449Z,172.90
2018-12-03T12:01:18.191Z,191.13
2018-12-03T12:03:46.891Z,193.10
2018-12-03T12:06:15.663Z,194.23
2018-12-03T12:08:44.637Z,209.47
2018-12-03T12:11:13.325Z,196.53
2018-12-03T12:13:42.093Z,201.90
2018-12-03T12:16:10.778Z,200.37
2018-12-03T12:18:39.483Z,201.37
2018-12-03T12:21:08.193Z,200.77
2018-12-03T12:23:36.896Z,202.30
2018-12-03T12:26:06.458Z,201.00
2018-12-03T12:28:38.249Z,194.13
2018-12-03T12:31:03.889Z,181.80
2018-12-03T12:33:32.558Z,178.93
2018-12-03T12:36:01.264Z,178.27
2018-12-03T12:38:29.921Z,175.63
2018-12-03T12:40:58.611Z,168.07
2018-12-03T12:43:27.255Z,161.80
2018-12-03T12:46:03.806Z,156.30
2018-12-03T12:48:32.456Z,153.07
2018-12-03T12:51:01.257Z,151.13
2018-12-03T12:53:29.931Z,147.33
2018-12-03T12:55:58.611Z,147.37
2018-12-03T12:58:27.290Z,151.00
2018-12-03T13:00:55.951Z,148.87
2018-12-03T13:03:24.616Z,152.27
2018-12-03T13:05:53.318Z,149.20
2018-12-03T13:08:21.949Z,149.30
2018-12-03T13:10:51.138Z,159.90
2018-12-03T13:13:19.822Z,147.50
2018-12-03T13:15:48.458Z,144.77
2018-12-03T13:18:17.082Z,147.90
2018-12-03T13:20:45.783Z,148.00
2018-12-03T13:23:14.476Z,145.57
2018-12-03T13:25:43.165Z,145.00
2018-12-03T13:28:11.856Z,145.10
2018-12-03T13:30:40.578Z,147.47
2018-12-03T13:33:09.297Z,142.83
2018-12-03T13:35:37.981Z,143.17
2018-12-03T13:38:06.781Z,141.93
2018-12-03T13:40:35.518Z,141.80
2018-12-03T13:43:04.330Z,143.77
2018-12-03T13:45:33.011Z,140.67
2018-12-03T13:48:01.796Z,143.60
2018-12-03T13:50:30.479Z,140.50
2018-12-03T13:53:00.433Z,138.60
2018-12-03T13:55:28.023Z,138.67
2018-12-03T13:57:56.715Z,140.40
2018-12-03T14:00:26.689Z,149.73
2018-12-03T14:03:15.619Z,154.97
2018-12-03T14:06:02.809Z,145.37
2018-12-03T14:10:48.632Z,142.83
2018-12-03T14:15:45.245Z,134.90
2018-12-03T14:18:58.348Z,141.47
2018-12-03T14:21:32.209Z,141.80
2018-12-03T14:24:01.446Z,136.97
2018-12-03T14:26:30.142Z,141.13
2018-12-03T14:28:58.815Z,139.87
2018-12-03T14:31:27.495Z,138.80
2018-12-03T14:33:56.181Z,136.30
2018-12-03T14:36:24.973Z,137.30
2018-12-03T14:38:54.677Z,133.73
2018-12-03T14:41:23.386Z,137.93
2018-12-03T14:43:52.130Z,137.57
2018-12-03T14:46:20.795Z,139.53
2018-12-03T14:48:51.132Z,139.77
2018-12-03T14:51:20.869Z,135.10
2018-12-03T14:53:49.482Z,140.43
2018-12-03T14:56:18.156Z,136.97
2018-12-03T14:58:46.847Z,139.00
2018-12-03T15:01:15.573Z,142.43
2018-12-03T15:03:44.288Z,142.27
2018-12-03T15:06:12.980Z,140.37
2018-12-03T15:08:41.655Z,140.73
2018-12-03T15:11:10.489Z,141.73
2018-12-03T15:13:39.121Z,142.80
2018-12-03T15:16:07.856Z,147.07
2018-12-03T15:18:36.546Z,146.60
2018-12-03T15:21:05.231Z,143.43
2018-12-03T15:23:33.896Z,146.50
2018-12-03T15:26:02.596Z,146.03
2018-12-03T20:17:47.747Z,128.83
2018-12-03T20:20:22.826Z,130.77
2018-12-03T20:22:59.726Z,130.47
2018-12-03T20:25:35.781Z,130.87
2018-12-03T20:28:09.156Z,129.80
2018-12-03T20:30:55.605Z,140.77
2018-12-03T20:33:38.425Z,149.50
2018-12-03T20:36:21.060Z,125.03
2018-12-03T20:39:09.299Z,125.00
2018-12-03T20:41:42.535Z,122.27
2018-12-03T20:44:36.392Z,123.20
2018-12-03T20:47:37.554Z,156.30
2018-12-03T20:51:24.219Z,121.83
2018-12-03T20:53:52.957Z,119.83
2018-12-03T20:56:21.682Z,120.17
2018-12-03T20:58:50.423Z,121.37
2018-12-03T21:01:19.120Z,118.33
2018-12-03T21:03:47.850Z,127.43
2018-12-03T21:06:16.509Z,122.73
2018-12-03T21:08:45.161Z,126.57
2018-12-03T21:11:13.845Z,124.30
2018-12-03T21:13:42.479Z,122.67
2018-12-03T21:16:11.152Z,122.20
2018-12-03T21:18:39.786Z,123.93
2018-12-03T21:21:10.158Z,124.20
2018-12-03T21:23:38.859Z,128.13
2018-12-03T21:26:07.553Z,125.43
2018-12-03T21:28:36.231Z,130.40
2018-12-03T21:31:04.961Z,128.03
2018-12-03T21:33:33.638Z,125.67
2018-12-03T21:36:02.349Z,126.10
2018-12-03T21:38:31.312Z,122.20
2018-12-03T21:40:59.993Z,131.37
2018-12-03T21:43:28.747Z,122.73
2018-12-03T21:45:57.460Z,123.30
2018-12-03T21:48:26.101Z,123.37
2018-12-03T21:50:54.722Z,124.53
2018-12-03T21:53:23.579Z,122.07
2018-12-03T21:55:52.290Z,121.57
2018-12-03T21:58:21.951Z,119.60
2018-12-03T22:00:50.624Z,122.03
2018-12-03T22:03:19.302Z,122.97
2018-12-03T22:05:47.978Z,115.63
2018-12-03T22:08:17.143Z,117.80
2018-12-03T22:10:53.027Z,118.97
2018-12-03T22:13:21.796Z,113.97
2018-12-03T22:15:50.468Z,113.33
2018-12-03T22:18:19.180Z,114.47
2018-12-03T22:20:47.818Z,114.40
2018-12-03T22:23:16.486Z,118.23
2018-12-03T22:25:45.183Z,108.97
2018-12-03T22:28:13.888Z,109.00
2018-12-03T22:30:42.574Z,108.97
2018-12-03T22:33:11.250Z,107.43
2018-12-03T22:35:39.862Z,110.73
2018-12-03T22:38:08.469Z,107.17
2018-12-03T22:40:37.143Z,107.23
2018-12-03T22:43:05.791Z,107.37
2018-12-03T22:45:34.593Z,103.50
2018-12-03T22:48:03.311Z,106.23
2018-12-03T22:50:31.976Z,105.50
2018-12-03T22:53:00.608Z,105.70
2018-12-03T22:55:29.378Z,106.40
2018-12-03T22:57:58.032Z,109.17
2018-12-03T23:00:32.327Z,106.00
2018-12-03T23:03:00.970Z,133.23
2018-12-03T23:05:29.610Z,104.47
2018-12-03T23:07:58.272Z,102.73
2018-12-03T23:10:26.979Z,100.10
2018-12-03T23:12:55.687Z,104.60
2018-12-03T23:15:24.315Z,109.47
2018-12-03T23:17:53.062Z,106.33
2018-12-03T23:20:21.814Z,108.20
2018-12-03T23:22:51.074Z,106.20
2018-12-03T23:25:19.783Z,104.53
2018-12-03T23:27:49.000Z,100.10
2018-12-03T23:30:17.647Z,102.93
2018-12-03T23:32:46.286Z,111.63
2018-12-03T23:35:14.992Z,106.47
2018-12-03T23:37:43.602Z,101.63
2018-12-03T23:40:12.279Z,107.80
2018-12-03T23:42:40.940Z,107.23
2018-12-03T23:45:09.639Z,90.77
2018-12-03T23:47:38.301Z,93.63
2018-12-03T23:50:07.133Z,91.13
2018-12-03T23:52:35.806Z,101.03
2018-12-03T23:55:04.727Z,89.00
2018-12-03T23:57:33.358Z,114.20
